Terminal Aerodrome Forecast
Issued by NWS Billings, MT

Home | Current Version | Previous Version | Text Only | Print | Product List | Glossary On
Versions: 1 2 3 4 5 6 7 8 9 10 11 12 13 14 15 16 17 18 19 20 21 22 23 24 25 26 27 28 29
000
FTUS45 KBYZ 032320
TAFBIL
TAF
KBIL 032320Z 0400/0424 03009KT P6SM VCTS SCT100CB BKN130
      TEMPO 0400/0404 VRB16G28KT -TSRA BKN080CB
     FM040500 36007KT P6SM VCTS SCT100CB
     FM041000 VRB05KT P6SM FEW110 SCT250
     FM041800 06008KT P6SM SCT250=

USA.gov is the U.S. government's official web portal to all federal, state and local government web resources and services.